Time;durP1;ratioP1;P1;durP2;ratioP2;P2;SDS_P1;SDS_P2;PMS_P1;PMS_P2;Temp;Humidity;BMP_temperature;BMP_pressure;BME280_temperature;BME280_humidity;BME280_pressure;Samples;Min_cycle;Max_cycle;Signal;HPM_P1;HPM_P2
2022/01/05 00:00:53;;;;;;;7.82;4.13;;;;;;;;;;5011380;28;20054;-70
2022/01/05 00:03:24;;;;;;;9.40;3.85;;;;;;;;;;4972441;28;20047;-67
2022/01/05 00:05:55;;;;;;;9.38;3.53;;;;;;;;;;4972281;28;20416;-68
2022/01/05 00:08:25;;;;;;;7.28;4.53;;;;;;;;;;4933761;29;20067;-69
2022/01/05 00:10:55;;;;;;;8.18;4.43;;;;;;;;;;4918602;29;20059;-68
2022/01/05 00:13:26;;;;;;;10.27;4.75;;;;;;;;;;4927742;28;20055;-69
2022/01/05 00:15:56;;;;;;;8.50;3.80;;;;;;;;;;4952966;28;20399;-68
2022/01/05 00:18:26;;;;;;;7.13;4.10;;;;;;;;;;4953064;28;20055;-68
2022/01/05 00:20:57;;;;;;;7.18;4.55;;;;;;;;;;4971587;28;20055;-69
2022/01/05 00:23:28;;;;;;;10.00;4.10;;;;;;;;;;4971805;28;20450;-68
2022/01/05 00:26:01;;;;;;;10.05;4.85;;;;;;;;;;4904835;29;20083;-68
2022/01/05 00:28:32;;;;;;;8.93;5.10;;;;;;;;;;4933548;29;20064;-68
2022/01/05 00:31:02;;;;;;;6.60;4.20;;;;;;;;;;4933342;29;20048;-69
2022/01/05 00:33:32;;;;;;;7.55;4.78;;;;;;;;;;4937289;28;20553;-68
2022/01/05 00:36:04;;;;;;;8.20;4.50;;;;;;;;;;4933153;29;20078;-68
2022/01/05 00:38:37;;;;;;;9.40;4.45;;;;;;;;;;4932970;29;20067;-69
2022/01/05 00:41:07;;;;;;;8.30;4.43;;;;;;;;;;4917251;29;20055;-69
2022/01/05 00:43:38;;;;;;;9.10;4.68;;;;;;;;;;4933284;29;20100;-69
2022/01/05 00:46:08;;;;;;;11.52;4.63;;;;;;;;;;4926967;28;20527;-68
2022/01/05 00:48:39;;;;;;;9.05;4.68;;;;;;;;;;4952405;28;20419;-68
2022/01/05 00:51:10;;;;;;;10.80;5.55;;;;;;;;;;4952579;28;20055;-68
2022/01/05 00:53:43;;;;;;;9.25;5.50;;;;;;;;;;4910966;29;20504;-69
2022/01/05 00:56:13;;;;;;;10.85;5.50;;;;;;;;;;4933182;29;20056;-68
2022/01/05 00:58:43;;;;;;;11.95;5.70;;;;;;;;;;4926156;28;20056;-69
2022/01/05 01:01:13;;;;;;;13.50;8.43;;;;;;;;;;4905063;29;20079;-71
2022/01/05 01:03:44;;;;;;;9.27;6.15;;;;;;;;;;4913761;29;20083;-68
2022/01/05 01:06:16;;;;;;;12.40;4.70;;;;;;;;;;4914148;29;20405;-68
2022/01/05 01:08:46;;;;;;;10.63;4.43;;;;;;;;;;4892684;29;20059;-68
2022/01/05 01:11:16;;;;;;;8.98;4.63;;;;;;;;;;4932869;29;20520;-68
2022/01/05 01:13:46;;;;;;;8.88;5.18;;;;;;;;;;4932478;29;20535;-68
2022/01/05 01:16:19;;;;;;;14.02;5.35;;;;;;;;;;4962530;28;20513;-68
2022/01/05 01:18:51;;;;;;;12.70;5.20;;;;;;;;;;4951687;28;20055;-68
2022/01/05 01:21:22;;;;;;;9.73;5.35;;;;;;;;;;4951741;29;20396;-68
2022/01/05 01:23:55;;;;;;;11.02;4.85;;;;;;;;;;4947644;29;20052;-68
2022/01/05 01:26:29;;;;;;;181.55;56.13;;;;;;;;;;4970629;28;20057;-67
2022/01/05 01:28:59;;;;;;;9.15;4.55;;;;;;;;;;4955316;28;20058;-67
2022/01/05 01:31:30;;;;;;;7.20;3.67;;;;;;;;;;4932064;29;20121;-67
2022/01/05 01:34:00;;;;;;;9.95;4.50;;;;;;;;;;4900524;29;20425;-68
2022/01/05 01:36:30;;;;;;;15.18;5.63;;;;;;;;;;4932383;29;20056;-67
2022/01/05 01:39:00;;;;;;;11.18;6.03;;;;;;;;;;4866201;29;20052;-67
2022/01/05 01:41:32;;;;;;;13.50;6.18;;;;;;;;;;4913528;29;20060;-67
2022/01/05 01:44:02;;;;;;;12.93;7.07;;;;;;;;;;4890480;29;20060;-68
2022/01/05 01:46:33;;;;;;;13.30;6.00;;;;;;;;;;4890764;29;20057;-68
2022/01/05 01:49:03;;;;;;;10.18;6.00;;;;;;;;;;4875590;29;20060;-67
2022/01/05 01:51:35;;;;;;;8.35;5.00;;;;;;;;;;4894227;29;20063;-67
2022/01/05 01:54:07;;;;;;;8.50;5.65;;;;;;;;;;4893859;29;20060;-68
2022/01/05 01:56:38;;;;;;;9.70;5.80;;;;;;;;;;4883595;29;20049;-69
2022/01/05 01:59:09;;;;;;;15.07;6.15;;;;;;;;;;4885994;29;20059;-67
2022/01/05 02:01:41;;;;;;;13.05;5.40;;;;;;;;;;4904749;29;20063;-67
2022/01/05 02:04:11;;;;;;;12.18;5.80;;;;;;;;;;4933782;28;20070;-67
2022/01/05 02:06:41;;;;;;;8.88;5.43;;;;;;;;;;4950864;28;20062;-69
2022/01/05 02:09:12;;;;;;;16.25;5.80;;;;;;;;;;4970459;28;20054;-68
2022/01/05 02:11:43;;;;;;;9.57;4.78;;;;;;;;;;4989498;28;20399;-68
2022/01/05 02:14:14;;;;;;;9.15;5.65;;;;;;;;;;4969853;28;20054;-68
2022/01/05 02:16:45;;;;;;;9.40;5.43;;;;;;;;;;4969938;28;20054;-67
2022/01/05 02:19:15;;;;;;;8.63;5.75;;;;;;;;;;4970455;28;20560;-67
2022/01/05 02:21:45;;;;;;;9.68;5.40;;;;;;;;;;4902200;29;20052;-67
2022/01/05 02:24:16;;;;;;;12.48;6.10;;;;;;;;;;4893964;29;20076;-67
2022/01/05 02:26:46;;;;;;;16.63;6.40;;;;;;;;;;4912299;29;20059;-68
2022/01/05 02:29:16;;;;;;;13.80;7.07;;;;;;;;;;4932221;29;20082;-67
2022/01/05 02:31:47;;;;;;;12.23;7.10;;;;;;;;;;4950730;29;20066;-67
2022/01/05 02:34:18;;;;;;;12.93;6.45;;;;;;;;;;4883844;29;20051;-68
2022/01/05 02:36:48;;;;;;;12.70;7.22;;;;;;;;;;4931522;29;20500;-68
2022/01/05 02:39:18;;;;;;;12.88;6.57;;;;;;;;;;4931364;29;20103;-68
2022/01/05 02:41:50;;;;;;;13.35;6.50;;;;;;;;;;4931462;29;20055;-67
2022/01/05 02:44:21;;;;;;;15.45;6.93;;;;;;;;;;4937477;29;20054;-68
2022/01/05 02:46:51;;;;;;;15.07;7.03;;;;;;;;;;4931615;29;20060;-69
2022/01/05 02:49:21;;;;;;;9.93;5.75;;;;;;;;;;4940980;29;20055;-68
2022/01/05 02:51:51;;;;;;;13.38;5.20;;;;;;;;;;4940513;29;20060;-69
2022/01/05 02:54:22;;;;;;;12.27;6.05;;;;;;;;;;4930835;29;20051;-68
2022/01/05 02:56:53;;;;;;;10.73;6.90;;;;;;;;;;4931376;29;20069;-67
2022/01/05 02:59:23;;;;;;;11.80;6.22;;;;;;;;;;4915651;29;20062;-67
2022/01/05 03:01:53;;;;;;;10.70;6.18;;;;;;;;;;4931724;29;20060;-69
2022/01/05 03:04:26;;;;;;;12.13;6.60;;;;;;;;;;4940268;29;20067;-67
2022/01/05 03:06:56;;;;;;;10.65;6.57;;;;;;;;;;4950523;29;20503;-68
2022/01/05 03:09:27;;;;;;;12.45;6.72;;;;;;;;;;4950550;29;20063;-67
2022/01/05 03:11:57;;;;;;;11.95;7.13;;;;;;;;;;4943702;28;20062;-67
2022/01/05 03:14:27;;;;;;;15.82;7.25;;;;;;;;;;4931171;29;20062;-67
2022/01/05 03:16:58;;;;;;;12.27;7.38;;;;;;;;;;4931191;29;20051;-68
2022/01/05 03:19:29;;;;;;;15.20;7.55;;;;;;;;;;4899454;29;20208;-69
2022/01/05 03:22:00;;;;;;;12.82;6.55;;;;;;;;;;4961093;28;20062;-68
2022/01/05 03:24:30;;;;;;;11.48;6.95;;;;;;;;;;4992379;28;20054;-68
2022/01/05 03:27:00;;;;;;;14.45;7.43;;;;;;;;;;4992682;28;20051;-68
2022/01/05 03:29:30;;;;;;;17.42;7.88;;;;;;;;;;4953628;29;20558;-68
2022/01/05 03:32:02;;;;;;;12.48;8.32;;;;;;;;;;4943679;28;20073;-68
2022/01/05 03:34:32;;;;;;;14.75;6.38;;;;;;;;;;4931063;29;20056;-68
2022/01/05 03:37:02;;;;;;;12.82;8.60;;;;;;;;;;4899936;29;20522;-68
2022/01/05 03:39:33;;;;;;;16.27;8.27;;;;;;;;;;4915724;29;20067;-67
2022/01/05 03:42:04;;;;;;;13.25;6.88;;;;;;;;;;4915627;29;20385;-68
2022/01/05 03:44:35;;;;;;;13.10;7.40;;;;;;;;;;4915432;29;20060;-67
2022/01/05 03:47:05;;;;;;;12.15;6.38;;;;;;;;;;4915514;29;20056;-68
2022/01/05 03:49:35;;;;;;;14.60;7.28;;;;;;;;;;4896287;29;20055;-68
2022/01/05 03:52:06;;;;;;;14.52;7.13;;;;;;;;;;4895927;29;20052;-68
2022/01/05 03:54:37;;;;;;;18.38;6.82;;;;;;;;;;4899241;29;20056;-68
2022/01/05 03:57:07;;;;;;;17.30;7.80;;;;;;;;;;4915077;29;20474;-67
2022/01/05 03:59:37;;;;;;;12.10;8.13;;;;;;;;;;4930126;29;20044;-67
2022/01/05 04:02:07;;;;;;;16.20;8.63;;;;;;;;;;4896591;29;20132;-69
2022/01/05 04:04:38;;;;;;;15.00;8.15;;;;;;;;;;4933386;29;20052;-69
2022/01/05 04:07:09;;;;;;;18.30;8.32;;;;;;;;;;4916712;29;20056;-70
2022/01/05 04:09:40;;;;;;;14.85;6.85;;;;;;;;;;4905326;29;20056;-71
2022/01/05 04:12:11;;;;;;;15.98;7.68;;;;;;;;;;4913057;29;20052;-70
2022/01/05 04:14:42;;;;;;;19.50;7.22;;;;;;;;;;4933157;29;20047;-71
2022/01/05 04:17:12;;;;;;;15.13;7.18;;;;;;;;;;4942785;29;20047;-71
2022/01/05 04:19:43;;;;;;;18.60;8.02;;;;;;;;;;4952274;29;20063;-71
2022/01/05 04:22:13;;;;;;;15.13;7.78;;;;;;;;;;4933175;29;20051;-71
2022/01/05 04:24:43;;;;;;;18.65;7.57;;;;;;;;;;4931616;29;20169;-71
2022/01/05 04:27:15;;;;;;;11.93;5.95;;;;;;;;;;4884793;29;20063;-73
2022/01/05 04:29:45;;;;;;;13.88;7.10;;;;;;;;;;4892653;29;20071;-73
2022/01/05 04:32:16;;;;;;;17.13;7.25;;;;;;;;;;4895612;29;20058;-71
2022/01/05 04:34:47;;;;;;;18.55;7.55;;;;;;;;;;4931668;29;20070;-71
2022/01/05 04:37:37;;;;;;;17.02;6.53;;;;;;;;;;4933736;29;20064;-70
2022/01/05 04:40:11;;;;;;;18.27;7.55;;;;;;;;;;4952188;28;20052;-70
2022/01/05 04:42:42;;;;;;;12.70;7.93;;;;;;;;;;4952631;28;20054;-70
2022/01/05 04:45:12;;;;;;;15.82;7.30;;;;;;;;;;4936506;28;20059;-70
2022/01/05 04:47:42;;;;;;;17.05;8.07;;;;;;;;;;4917331;29;20077;-71
2022/01/05 04:50:15;;;;;;;17.25;7.80;;;;;;;;;;4933495;29;20056;-70
2022/01/05 04:52:45;;;;;;;17.40;7.45;;;;;;;;;;4933376;29;20060;-70
2022/01/05 04:55:15;;;;;;;18.77;8.30;;;;;;;;;;4952372;28;20055;-70
2022/01/05 04:57:45;;;;;;;20.33;7.70;;;;;;;;;;4951672;29;20051;-70
2022/01/05 05:00:16;;;;;;;17.48;8.02;;;;;;;;;;4965014;28;20063;-71
2022/01/05 05:02:48;;;;;;;19.60;7.97;;;;;;;;;;4971487;28;20404;-71
2022/01/05 05:05:19;;;;;;;20.95;8.88;;;;;;;;;;4971843;28;20081;-71
2022/01/05 05:07:48;;;;;;;15.88;8.73;;;;;;;;;;4971007;28;20062;-70
2022/01/05 05:10:19;;;;;;;18.52;9.07;;;;;;;;;;4958871;28;20070;-71
2022/01/05 05:12:50;;;;;;;21.88;10.57;;;;;;;;;;4952104;29;20047;-70
2022/01/05 05:15:20;;;;;;;21.75;11.63;;;;;;;;;;4954858;28;20074;-71
2022/01/05 05:17:50;;;;;;;22.20;11.98;;;;;;;;;;4951609;28;20055;-70
2022/01/05 05:20:21;;;;;;;24.33;13.65;;;;;;;;;;4951861;29;20059;-70
2022/01/05 05:22:52;;;;;;;25.10;14.27;;;;;;;;;;4951674;29;20047;-70
2022/01/05 05:25:22;;;;;;;25.48;13.98;;;;;;;;;;4936226;29;20063;-70
2022/01/05 05:27:52;;;;;;;45.20;15.05;;;;;;;;;;4951657;29;20120;-70
2022/01/05 05:30:35;;;;;;;21.83;13.32;;;;;;;;;;4908445;29;20070;-71
2022/01/05 05:33:07;;;;;;;23.83;13.55;;;;;;;;;;4949983;28;20099;-70
2022/01/05 05:35:39;;;;;;;29.55;15.18;;;;;;;;;;4971128;28;20064;-71
2022/01/05 05:38:10;;;;;;;;;;;;;;;;;;4974192;28;20541;-71
2022/01/05 05:40:41;;;;;;;23.65;12.70;;;;;;;;;;4940005;28;20281;-71
2022/01/05 05:43:12;;;;;;;26.42;13.85;;;;;;;;;;4929363;28;20514;-71
2022/01/05 05:45:43;;;;;;;24.83;14.13;;;;;;;;;;4986694;28;20482;-71
2022/01/05 05:48:13;;;;;;;24.90;14.18;;;;;;;;;;4989810;28;20485;-71
2022/01/05 08:57:28;;;;;;;;;;;;;;;;;;5190520;23;20084;-70
2022/01/05 08:59:58;;;;;;;14.02;8.80;;;;;;;;;;4877752;29;19923;-70
2022/01/05 09:02:28;;;;;;;15.20;8.02;;;;;;;;;;4877925;29;20552;-70
2022/01/05 09:04:59;;;;;;;14.57;8.90;;;;;;;;;;4877842;29;20413;-69
2022/01/05 09:07:30;;;;;;;12.52;8.10;;;;;;;;;;4877911;29;20057;-70
2022/01/05 09:10:03;;;;;;;17.05;7.80;;;;;;;;;;4859127;29;20049;-70
2022/01/05 09:12:35;;;;;;;16.15;8.15;;;;;;;;;;4840386;29;20060;-70
2022/01/05 09:15:06;;;;;;;10.00;7.68;;;;;;;;;;4804105;29;20058;-69
2022/01/05 09:17:36;;;;;;;12.07;8.00;;;;;;;;;;4785913;30;20059;-71
2022/01/05 09:20:08;;;;;;;14.70;8.00;;;;;;;;;;4785242;29;20071;-70
2022/01/05 09:22:38;;;;;;;11.85;8.35;;;;;;;;;;4786234;30;20063;-70
2022/01/05 09:25:11;;;;;;;12.77;8.73;;;;;;;;;;4786237;30;20059;-71
2022/01/05 09:27:41;;;;;;;12.93;8.63;;;;;;;;;;4785885;30;20637;-70
2022/01/05 09:30:14;;;;;;;14.20;8.55;;;;;;;;;;4786115;30;20059;-69
2022/01/05 09:32:44;;;;;;;14.23;8.48;;;;;;;;;;4786119;30;20059;-69
2022/01/05 09:35:18;;;;;;;11.73;8.07;;;;;;;;;;4786178;30;20067;-70
2022/01/05 09:37:53;;;;;;;12.82;8.88;;;;;;;;;;4781685;29;20050;-71
2022/01/05 09:43:12;;;;;;;18.90;10.55;;;;;;;;;;4803571;29;20079;-70
2022/01/05 09:46:01;;;;;;;14.73;9.15;;;;;;;;;;4803999;29;20074;-67
2022/01/05 09:49:12;;;;;;;18.17;10.30;;;;;;;;;;4803199;29;20075;-69
2022/01/05 09:51:43;;;;;;;13.43;8.80;;;;;;;;;;4751441;30;20056;-70
2022/01/05 09:54:14;;;;;;;14.23;9.43;;;;;;;;;;4769356;30;20067;-70
2022/01/05 09:57:05;;;;;;;15.68;9.60;;;;;;;;;;4809331;29;20062;-70
2022/01/05 09:59:36;;;;;;;13.27;8.48;;;;;;;;;;4821839;29;20775;-70
2022/01/05 10:02:08;;;;;;;15.35;8.60;;;;;;;;;;4810322;29;20419;-71
2022/01/05 10:04:41;;;;;;;13.73;8.93;;;;;;;;;;4801284;29;20062;-71
2022/01/05 10:07:12;;;;;;;13.85;8.43;;;;;;;;;;4805767;29;20055;-70
2022/01/05 10:09:44;;;;;;;14.52;8.15;;;;;;;;;;4767331;30;20421;-70
2022/01/05 10:12:15;;;;;;;17.30;10.20;;;;;;;;;;4742212;30;20059;-70
2022/01/05 10:14:48;;;;;;;23.95;13.65;;;;;;;;;;4713721;30;20057;-70
2022/01/05 10:17:29;;;;;;;26.48;13.07;;;;;;;;;;4711303;30;20057;-69
2022/01/05 10:20:06;;;;;;;22.25;11.45;;;;;;;;;;4688190;30;20061;-69
2022/01/05 10:22:42;;;;;;;25.67;12.80;;;;;;;;;;4683230;30;20057;-69
2022/01/05 10:25:20;;;;;;;27.05;13.02;;;;;;;;;;4685829;30;20449;-70
2022/01/05 10:28:04;;;;;;;24.02;11.65;;;;;;;;;;4707938;30;20551;-70
2022/01/05 10:30:39;;;;;;;22.23;12.80;;;;;;;;;;4713799;30;20407;-69
2022/01/05 10:33:10;;;;;;;25.85;13.02;;;;;;;;;;4696637;30;21460;-70
2022/01/05 10:35:56;;;;;;;22.77;12.82;;;;;;;;;;4666015;30;20068;-69
2022/01/05 10:38:30;;;;;;;20.55;13.23;;;;;;;;;;4682789;30;20065;-70
2022/01/05 10:41:15;;;;;;;22.10;11.32;;;;;;;;;;4696883;30;20054;-69
2022/01/05 10:44:20;;;;;;;25.58;11.48;;;;;;;;;;4694594;30;20123;-70
2022/01/05 10:46:58;;;;;;;19.63;11.35;;;;;;;;;;4709020;30;20087;-70
2022/01/05 10:49:37;;;;;;;24.48;12.75;;;;;;;;;;4733824;30;20063;-69
2022/01/05 10:52:29;;;;;;;19.45;11.25;;;;;;;;;;4732311;30;20052;-70
2022/01/05 10:55:16;;;;;;;16.65;10.65;;;;;;;;;;4756414;30;20689;-69
2022/01/05 10:57:56;;;;;;;17.40;9.18;;;;;;;;;;4750254;30;20671;-70
2022/01/05 11:00:40;;;;;;;18.60;10.80;;;;;;;;;;4748668;30;20049;-70
2022/01/05 11:03:41;;;;;;;17.42;12.40;;;;;;;;;;4730722;30;20052;-70
2022/01/05 11:06:14;;;;;;;17.77;11.35;;;;;;;;;;4698683;30;20077;-70
2022/01/05 11:09:05;;;;;;;18.10;10.95;;;;;;;;;;4696354;30;20066;-70
2022/01/05 11:11:37;;;;;;;17.77;11.48;;;;;;;;;;4696394;30;20057;-69
2022/01/05 11:14:13;;;;;;;15.90;10.10;;;;;;;;;;4696325;30;20071;-70
2022/01/05 11:16:52;;;;;;;16.02;10.32;;;;;;;;;;4696403;30;20061;-70
2022/01/05 11:19:41;;;;;;;16.42;10.80;;;;;;;;;;4667972;30;20064;-71
